Time;durP1;ratioP1;P1;durP2;ratioP2;P2;SDS_P1;SDS_P2;PMS_P1;PMS_P2;Temp;Humidity;BMP_temperature;BMP_pressure;BME280_temperature;BME280_humidity;BME280_pressure;Samples;Min_cycle;Max_cycle;Signal;HPM_P1;HPM_P2
2022/08/16 00:00:50;;;;;;;;;24.75;24.75;;;;;25.52;48.48;100140.69;2099227;28;48155;-62
2022/08/16 00:01:50;;;;;;;;;33.80;31.60;;;;;25.52;48.41;100146.13;2104102;28;47596;-60
2022/08/16 00:02:53;;;;;;;;;37.75;33.25;;;;;25.50;48.20;100142.69;2095295;28;47625;-62
2022/08/16 00:03:53;;;;;;;;;34.00;30.20;;;;;25.49;48.10;100143.69;2095455;28;48002;-62
2022/08/16 00:04:54;;;;;;;;;31.75;30.25;;;;;25.49;48.93;100139.13;2103671;28;47520;-62
2022/08/16 00:05:54;;;;;;;;;31.75;29.50;;;;;25.51;48.82;100138.97;2104508;27;47469;-61
2022/08/16 00:06:55;;;;;;;;;35.75;31.25;;;;;25.51;48.67;100141.69;2104516;27;47540;-61
2022/08/16 00:07:57;;;;;;;;;31.60;29.40;;;;;25.49;48.65;100133.69;2103893;28;47062;-62
2022/08/16 00:08:58;;;;;;;;;31.60;29.80;;;;;25.51;48.52;100141.69;2104626;27;47590;-61
2022/08/16 00:09:59;;;;;;;;;32.00;30.00;;;;;25.52;48.59;100140.69;2104863;27;47649;-61
2022/08/16 00:10:59;;;;;;;;;29.80;28.40;;;;;25.51;48.84;100145.28;2104457;27;47377;-61
2022/08/16 00:12:00;;;;;;;;;32.25;29.25;;;;;25.50;48.54;100140.84;2108794;27;47786;-61
2022/08/16 00:13:02;;;;;;;;;31.50;30.50;;;;;25.49;48.70;100139.13;2106544;27;47540;-61
2022/08/16 00:14:09;;;;;;;;;31.20;30.00;;;;;25.48;49.07;100140.13;2103773;27;48003;-62
2022/08/16 00:15:16;;;;;;;;;32.20;31.00;;;;;25.48;49.01;100142.00;2103585;28;47470;-61
2022/08/16 00:16:17;;;;;;;;;35.80;31.20;;;;;25.48;48.54;100147.41;2103956;28;48082;-60
2022/08/16 00:17:17;;;;;;;;;32.75;30.50;;;;;25.47;49.28;100152.00;2104683;28;47806;-62
2022/08/16 00:18:18;;;;;;;;;31.00;29.00;;;;;25.45;49.23;100143.13;2104285;27;47946;-62
2022/08/16 00:19:23;;;;;;;;;34.40;32.00;;;;;25.44;49.41;100149.56;2104552;27;47177;-61
2022/08/16 00:20:24;;;;;;;;;34.60;31.80;;;;;25.44;49.11;100156.88;2103787;27;47735;-60
2022/08/16 00:21:25;;;;;;;;;39.00;34.25;;;;;25.43;49.13;100152.44;2104799;27;47519;-61
2022/08/16 00:22:25;;;;;;;;;36.40;32.60;;;;;25.42;49.03;100158.88;2104093;28;48222;-62
2022/08/16 00:23:26;;;;;;;;;40.25;32.75;;;;;25.40;48.76;100153.56;2104080;28;47669;-63
2022/08/16 00:24:28;;;;;;;;;34.75;30.75;;;;;25.40;49.50;100152.69;2104233;28;47519;-62
2022/08/16 00:25:29;;;;;;;;;38.00;33.60;;;;;25.39;49.30;100153.69;2104072;27;47833;-59
2022/08/16 00:26:29;;;;;;;;;34.80;31.80;;;;;25.37;49.12;100156.56;2104451;28;47618;-62
2022/08/16 00:27:30;;;;;;;;;30.00;29.00;;;;;25.36;49.18;100154.00;2104571;27;47483;-62
2022/08/16 00:28:30;;;;;;;;;35.25;31.00;;;;;25.35;49.08;100153.13;2103825;28;47165;-61
2022/08/16 00:29:31;;;;;;;;;33.75;31.75;;;;;25.35;49.43;100155.00;2104160;28;47897;-61
2022/08/16 00:30:31;;;;;;;;;36.25;32.75;;;;;25.34;49.70;100148.69;2104374;27;48002;-62
2022/08/16 00:31:33;;;;;;;;;31.50;30.50;;;;;25.33;49.76;100152.41;2104343;28;47583;-61
2022/08/16 00:32:34;;;;;;;;;35.60;32.60;;;;;25.31;49.60;100157.13;2104601;27;47688;-60
2022/08/16 00:33:34;;;;;;;;;30.00;29.00;;;;;25.30;49.70;100157.28;2104697;27;47462;-62
2022/08/16 00:34:36;;;;;;;;;33.50;31.00;;;;;25.27;49.85;100152.13;2099582;27;47361;-60
2022/08/16 00:35:38;;;;;;;;;32.60;30.60;;;;;25.27;49.95;100158.41;2104839;27;47358;-62
2022/08/16 00:36:38;;;;;;;;;32.20;31.00;;;;;25.28;49.71;100170.13;2104291;27;47422;-62
2022/08/16 00:37:39;;;;;;;;;29.25;28.25;;;;;25.27;49.40;100157.53;2104666;27;47806;-61
2022/08/16 00:38:39;;;;;;;;;35.25;30.75;;;;;25.26;50.08;100159.41;2103053;28;47387;-60
2022/08/16 00:39:40;;;;;;;;;32.00;30.00;;;;;25.23;50.19;100160.53;2104422;27;47269;-60
2022/08/16 00:40:48;;;;;;;;;34.75;31.75;;;;;25.26;50.19;100170.28;2109775;27;47440;-59
2022/08/16 00:41:49;;;;;;;;;31.40;29.80;;;;;25.26;49.95;100158.53;2104692;27;47962;-59
2022/08/16 00:42:50;;;;;;;;;33.80;31.80;;;;;25.26;49.57;100166.69;2104334;27;47663;-60
2022/08/16 00:43:51;;;;;;;;;31.40;30.00;;;;;25.26;50.16;100162.13;2104603;27;47997;-61
2022/08/16 00:44:55;;;;;;;;;33.25;30.25;;;;;25.27;49.99;100160.25;2103808;27;47638;-60
2022/08/16 00:46:32;;;;;;;;;36.40;32.00;;;;;25.27;50.01;100163.84;2104348;27;48016;-61
2022/08/16 00:47:34;;;;;;;;;29.60;27.60;;;;;25.29;50.20;100161.00;2098021;28;47458;-62
2022/08/16 00:48:36;;;;;;;;;32.40;30.80;;;;;25.28;49.71;100167.41;2096137;28;47652;-61
2022/08/16 00:49:37;;;;;;;;;33.40;31.00;;;;;25.29;50.11;100161.88;2101621;28;47446;-62
2022/08/16 00:50:39;;;;;;;;;33.00;31.00;;;;;25.32;50.30;100166.16;2104288;27;47571;-60
2022/08/16 00:51:41;;;;;;;;;31.00;29.60;;;;;25.32;50.09;100164.28;2111852;27;47425;-62
2022/08/16 00:52:41;;;;;;;;;31.20;29.80;;;;;25.31;50.19;100168.00;2103434;28;47605;-60
2022/08/16 00:53:42;;;;;;;;;33.50;30.00;;;;;25.29;49.83;100159.16;2109947;27;46360;-62
2022/08/16 00:54:42;;;;;;;;;33.00;30.75;;;;;25.29;50.00;100161.88;2104901;27;48147;-61
2022/08/16 00:55:47;;;;;;;;;33.75;31.00;;;;;25.29;49.84;100163.72;2104283;27;47217;-61
2022/08/16 00:56:49;;;;;;;;;33.40;31.00;;;;;25.28;50.03;100160.13;2103744;27;47640;-61
2022/08/16 00:57:53;;;;;;;;;30.40;29.60;;;;;25.28;50.07;100160.13;2104113;27;47305;-61
2022/08/16 00:58:53;;;;;;;;;35.60;32.00;;;;;25.27;49.94;100157.53;2103420;27;48531;-58
2022/08/16 00:59:54;;;;;;;;;29.00;28.00;;;;;25.28;50.25;100156.53;2104253;28;48032;-61
2022/08/16 01:00:54;;;;;;;;;35.00;31.25;;;;;25.30;50.00;100151.84;2104197;27;47198;-62
2022/08/16 01:01:55;;;;;;;;;30.50;28.00;;;;;25.30;50.19;100147.28;2104600;27;47344;-61
2022/08/16 01:02:58;;;;;;;;;34.00;29.00;;;;;25.32;50.39;100149.84;2112097;27;47358;-59
2022/08/16 01:03:59;;;;;;;;;33.20;30.60;;;;;25.33;50.31;100147.00;2111814;27;47417;-61
2022/08/16 01:05:00;;;;;;;;;30.80;29.60;;;;;25.37;49.56;100142.13;2104566;27;48141;-60
2022/08/16 01:06:02;;;;;;;;;33.50;31.00;;;;;25.36;49.91;100141.25;2104336;27;47548;-62
2022/08/16 01:07:05;;;;;;;;;34.40;31.00;;;;;25.36;50.22;100140.41;2104128;27;47980;-59
2022/08/16 01:08:07;;;;;;;;;32.00;30.20;;;;;25.38;49.89;100141.13;2103547;27;47517;-62
2022/08/16 01:09:08;;;;;;;;;31.40;29.00;;;;;25.40;50.10;100139.13;2104186;27;47795;-61
2022/08/16 01:10:08;;;;;;;;;32.00;31.00;;;;;25.39;49.88;100134.69;2104410;27;47507;-61
2022/08/16 01:11:09;;;;;;;;;27.00;27.00;;;;;25.39;50.25;100134.69;2103735;28;47742;-61
2022/08/16 01:12:10;;;;;;;;;27.50;27.50;;;;;25.38;49.93;100136.53;2102988;27;47488;-60
2022/08/16 01:13:16;;;;;;;;;26.80;25.60;;;;;25.38;49.63;100135.69;2103933;28;47663;-61
2022/08/16 01:14:36;;;;;;;;;34.60;31.60;;;;;25.39;49.90;100134.69;2103472;28;47523;-61
2022/08/16 01:15:40;;;;;;;;;34.40;31.00;;;;;25.35;49.81;100128.69;2101280;27;48023;-62
2022/08/16 01:16:44;;;;;;;;;29.20;28.80;;;;;25.36;50.26;100129.53;2097867;27;47826;-62
2022/08/16 01:17:47;;;;;;;;;30.20;29.20;;;;;25.37;50.04;100133.97;2101285;27;47693;-61
2022/08/16 01:18:53;;;;;;;;;27.20;26.60;;;;;25.36;49.87;100134.97;2092845;28;45754;-62
2022/08/16 01:19:57;;;;;;;;;32.40;30.80;;;;;25.37;49.77;100137.53;2091874;28;47279;-62
2022/08/16 01:21:22;;;;;;;;;32.60;31.40;;;;;25.37;49.91;100134.84;2094646;28;48049;-62
2022/08/16 01:22:36;;;;;;;;;34.00;31.00;;;;;25.38;49.72;100138.41;2094599;28;47560;-62
2022/08/16 01:23:49;;;;;;;;;34.00;31.40;;;;;25.37;50.36;100125.81;2094225;28;48031;-62
2022/08/16 01:24:56;;;;;;;;;36.20;30.80;;;;;25.37;49.60;100132.13;2094437;28;47940;-62
2022/08/16 01:25:58;;;;;;;;;30.20;29.40;;;;;25.38;49.74;100125.69;2095089;28;47517;-61
2022/08/16 01:27:05;;;;;;;;;31.00;29.40;;;;;25.40;49.76;100120.09;2094478;28;47825;-62
2022/08/16 01:28:10;;;;;;;;;34.20;30.80;;;;;25.40;49.49;100118.25;2086723;28;47411;-60
2022/08/16 01:29:16;;;;;;;;;33.20;30.60;;;;;25.42;50.23;100118.97;2078713;28;46572;-61
2022/08/16 01:30:22;;;;;;;;;34.20;30.60;;;;;25.43;49.99;100119.84;2092390;28;47825;-60
2022/08/16 01:31:25;;;;;;;;;31.80;30.40;;;;;25.43;49.48;100128.84;2092993;28;48303;-61
2022/08/16 01:32:28;;;;;;;;;37.00;32.80;;;;;25.42;49.72;100129.84;2094563;28;48091;-60
2022/08/16 01:33:28;;;;;;;;;34.80;32.00;;;;;25.41;49.56;100129.97;2094648;28;47697;-60
2022/08/16 01:34:30;;;;;;;;;30.75;28.75;;;;;25.40;49.93;100133.69;2095097;28;47557;-60
2022/08/16 01:35:35;;;;;;;;;36.20;31.40;;;;;25.38;50.05;100135.69;2094592;28;47460;-61
2022/08/16 01:36:35;;;;;;;;;31.60;28.80;;;;;25.36;50.17;100140.41;2091605;28;46546;-60
2022/08/16 01:37:49;;;;;;;;;27.50;27.00;;;;;25.34;49.50;100135.13;2094977;28;47224;-59
2022/08/16 01:38:50;;;;;;;;;28.40;27.20;;;;;25.33;49.63;100132.56;2094553;28;47547;-61
2022/08/16 01:39:50;;;;;;;;;32.50;30.50;;;;;25.33;49.91;100136.13;2094734;28;46776;-60
2022/08/16 01:40:54;;;;;;;;;29.50;28.75;;;;;25.31;49.70;100132.69;2094771;28;47822;-59
2022/08/16 01:41:55;;;;;;;;;32.60;29.80;;;;;25.30;50.20;100135.56;2094160;28;47966;-60
2022/08/16 01:42:55;;;;;;;;;31.00;30.00;;;;;25.30;49.95;100138.28;2094292;28;47965;-60
2022/08/16 01:43:56;;;;;;;;;27.75;27.50;;;;;25.31;50.13;100140.84;2094868;28;47599;-59
2022/08/16 01:44:57;;;;;;;;;31.20;29.20;;;;;25.29;49.68;100139.28;2094149;28;47696;-59
2022/08/16 01:46:00;;;;;;;;;29.75;28.75;;;;;25.27;50.08;100138.53;2094649;28;47828;-61
2022/08/16 01:47:01;;;;;;;;;34.20;31.20;;;;;25.25;49.77;100144.09;2094551;28;45852;-61
2022/08/16 01:48:03;;;;;;;;;36.25;30.75;;;;;25.24;49.77;100132.38;2095375;28;47344;-62
2022/08/16 01:49:08;;;;;;;;;33.60;30.40;;;;;25.24;49.83;100134.25;2094420;28;47525;-62
2022/08/16 01:50:09;;;;;;;;;33.20;31.40;;;;;25.23;50.01;100136.09;2095143;28;47489;-61
2022/08/16 01:51:13;;;;;;;;;25.00;25.00;;;;;25.23;49.91;100127.97;2104167;27;47798;-60
2022/08/16 01:52:17;;;;;;;;;29.40;28.60;;;;;25.25;50.29;100138.69;2103316;28;46971;-61
2022/08/16 01:53:17;;;;;;;;;31.40;29.80;;;;;25.26;49.91;100129.53;2103167;27;47623;-62
2022/08/16 01:54:18;;;;;;;;;28.00;27.75;;;;;25.27;50.25;100136.66;2099250;28;46690;-62
2022/08/16 01:55:20;;;;;;;;;30.25;28.00;;;;;25.29;49.95;100133.84;2101327;27;47122;-61
2022/08/16 01:56:21;;;;;;;;;30.00;28.00;;;;;25.28;50.01;100141.09;2100075;27;47574;-61
2022/08/16 01:57:22;;;;;;;;;32.60;30.40;;;;;25.30;50.42;100139.13;2098231;27;49077;-61
2022/08/16 01:58:22;;;;;;;;;30.25;28.50;;;;;25.30;49.99;100136.41;2102624;27;47933;-61
2022/08/16 01:59:23;;;;;;;;;32.00;30.25;;;;;25.31;50.44;100129.97;2103370;28;45737;-62
2022/08/16 02:00:25;;;;;;;;;29.25;28.25;;;;;25.32;50.09;100137.13;2103021;28;47579;-60
2022/08/16 02:01:27;;;;;;;;;33.40;30.60;;;;;25.31;50.09;100132.69;2103932;28;48088;-61
2022/08/16 02:02:27;;;;;;;;;28.60;28.40;;;;;25.33;50.29;100143.41;2103726;28;48510;-60
2022/08/16 02:03:28;;;;;;;;;31.75;30.25;;;;;25.35;50.25;100142.28;2103651;27;47962;-60
2022/08/16 02:04:31;;;;;;;;;30.50;29.00;;;;;25.35;49.97;100141.41;2102542;28;47306;-61
2022/08/16 02:05:31;;;;;;;;;31.60;29.80;;;;;25.35;49.72;100142.28;2101788;27;47388;-61
2022/08/16 02:06:33;;;;;;;;;27.25;27.25;;;;;25.37;50.10;100142.97;2103532;28;47726;-61
2022/08/16 02:07:33;;;;;;;;;29.80;29.00;;;;;25.39;49.72;100140.97;2103193;28;48445;-61
2022/08/16 02:08:34;;;;;;;;;28.50;28.00;;;;;25.40;50.05;100139.97;2103656;27;47838;-59
2022/08/16 02:09:36;;;;;;;;;30.00;28.50;;;;;25.42;50.17;100142.56;2104095;27;47820;-62
2022/08/16 02:10:37;;;;;;;;;31.80;29.80;;;;;25.44;50.14;100138.72;2102249;27;48116;-62
2022/08/16 02:11:42;;;;;;;;;32.50;28.00;;;;;25.44;49.55;100138.72;2103060;27;47570;-61
2022/08/16 02:12:43;;;;;;;;;30.00;28.20;;;;;25.46;50.11;100147.56;2103543;28;47901;-61
2022/08/16 02:13:44;;;;;;;;;32.80;30.80;;;;;25.47;49.53;100141.13;2101849;27;47595;-60
2022/08/16 02:14:45;;;;;;;;;32.20;30.20;;;;;25.48;49.50;100133.84;2095849;27;47470;-61
2022/08/16 02:15:46;;;;;;;;;31.25;30.50;;;;;25.49;49.45;100135.56;2100722;28;47141;-61
2022/08/16 02:16:46;;;;;;;;;32.50;30.75;;;;;25.49;50.01;100138.25;2103491;27;47556;-62
2022/08/16 02:17:46;;;;;;;;;35.00;31.50;;;;;25.49;49.96;100135.56;2104030;27;47124;-61
2022/08/16 02:18:47;;;;;;;;;35.00;32.25;;;;;25.49;49.52;100140.97;2103808;27;47730;-62
2022/08/16 02:19:48;;;;;;;;;32.00;29.75;;;;;25.48;49.74;100140.13;2103824;27;47958;-61
2022/08/16 02:20:51;;;;;;;;;27.50;27.25;;;;;25.48;49.88;100136.56;2101811;28;47948;-62
2022/08/16 02:21:54;;;;;;;;;30.40;29.00;;;;;25.48;50.11;100134.69;2103103;28;47836;-61
2022/08/16 02:22:56;;;;;;;;;37.80;31.40;;;;;25.49;49.53;100135.56;2103455;28;46511;-61
2022/08/16 02:23:57;;;;;;;;;35.20;31.20;;;;;25.48;49.92;100131.13;2103977;27;47600;-62
2022/08/16 02:24:57;;;;;;;;;29.40;28.60;;;;;25.49;49.67;100132.84;2104743;27;47563;-61
2022/08/16 02:25:58;;;;;;;;;32.25;29.00;;;;;25.50;49.86;100132.69;2104372;27;47710;-58
2022/08/16 02:26:58;;;;;;;;;33.25;30.75;;;;;25.48;50.04;100134.69;2094005;28;46058;-62
2022/08/16 02:27:59;;;;;;;;;32.75;31.00;;;;;25.50;50.09;100131.84;2095130;28;47763;-61
2022/08/16 02:28:59;;;;;;;;;31.00;29.25;;;;;25.50;49.30;100137.25;2094897;28;47376;-62
2022/08/16 02:29:59;;;;;;;;;35.00;31.50;;;;;25.50;49.38;100140.84;2091014;28;47481;-61
2022/08/16 02:31:04;;;;;;;;;30.75;29.00;;;;;25.49;49.81;100130.97;2095774;28;47709;-62
2022/08/16 02:32:06;;;;;;;;;33.40;30.80;;;;;25.49;49.73;100135.56;2095929;28;48309;-62
2022/08/16 02:33:06;;;;;;;;;37.20;33.40;;;;;25.49;49.96;100130.97;2090181;28;47466;-62
2022/08/16 02:34:07;;;;;;;;;29.00;28.00;;;;;25.50;49.40;100126.41;2094169;28;47799;-61
2022/08/16 02:35:08;;;;;;;;;30.75;29.50;;;;;25.51;49.89;100128.09;2095688;28;47579;-62
2022/08/16 02:36:10;;;;;;;;;33.20;30.20;;;;;25.51;50.13;100131.69;2090435;28;47913;-62
2022/08/16 02:37:10;;;;;;;;;28.80;28.80;;;;;25.51;49.49;100128.09;2093718;28;47187;-62
2022/08/16 02:38:11;;;;;;;;;25.25;25.25;;;;;25.51;49.98;100119.97;2092086;28;47520;-63
2022/08/16 02:39:13;;;;;;;;;32.75;30.25;;;;;25.52;49.93;100124.38;2091557;28;48103;-62
2022/08/16 02:40:17;;;;;;;;;31.20;30.40;;;;;25.51;50.13;100115.38;2087961;28;47384;-60
2022/08/16 02:41:18;;;;;;;;;33.40;30.40;;;;;25.50;49.89;100107.38;2086388;28;48149;-61
2022/08/16 02:42:21;;;;;;;;;32.60;30.60;;;;;25.50;49.57;100105.50;2092537;28;47568;-61
2022/08/16 02:43:26;;;;;;;;;34.25;30.75;;;;;25.50;49.87;100097.38;2095658;28;47966;-63
2022/08/16 02:44:27;;;;;;;;;28.40;28.20;;;;;25.49;49.82;100100.22;2090789;28;47923;-62
2022/08/16 02:45:27;;;;;;;;;34.20;31.40;;;;;25.47;49.54;100094.09;2091917;28;47929;-61
2022/08/16 02:46:28;;;;;;;;;32.50;30.50;;;;;25.46;49.57;100093.22;2094056;28;47365;-61
2022/08/16 02:47:28;;;;;;;;;32.00;30.50;;;;;25.46;50.06;100086.94;2089366;28;47389;-61
2022/08/16 02:48:29;;;;;;;;;32.00;30.50;;;;;25.46;50.13;100093.22;2087564;28;47444;-61
2022/08/16 02:49:30;;;;;;;;;32.60;28.60;;;;;25.46;49.87;100095.09;2087276;28;47695;-61
2022/08/16 02:50:30;;;;;;;;;31.75;30.00;;;;;25.46;50.26;100087.78;2089814;28;47596;-62
2022/08/16 02:51:32;;;;;;;;;35.00;32.25;;;;;25.46;50.18;100082.38;2086583;28;47300;-61
2022/08/16 02:52:32;;;;;;;;;32.00;29.80;;;;;25.46;50.23;100085.09;2087149;28;47406;-61
2022/08/16 02:53:34;;;;;;;;;28.25;28.00;;;;;25.47;49.62;100069.63;2095928;28;47275;-62
2022/08/16 02:54:36;;;;;;;;;34.20;31.20;;;;;25.47;50.08;100084.06;2095803;28;47832;-61
2022/08/16 02:55:36;;;;;;;;;31.20;29.00;;;;;25.48;49.72;100080.34;2090365;28;46889;-61
2022/08/16 02:56:37;;;;;;;;;32.50;30.50;;;;;25.48;49.79;100088.50;2089203;28;47602;-61
2022/08/16 02:57:38;;;;;;;;;36.00;32.75;;;;;25.48;49.93;100085.78;2094012;28;47638;-62
2022/08/16 02:58:38;;;;;;;;;30.40;29.40;;;;;25.49;49.88;100089.38;2099609;28;47725;-62
2022/08/16 02:59:41;;;;;;;;;33.50;30.50;;;;;25.47;49.92;100085.94;2105155;27;47883;-61
2022/08/16 03:00:41;;;;;;;;;35.00;31.20;;;;;25.45;50.27;100088.81;2101393;27;47527;-62
2022/08/16 03:01:41;;;;;;;;;31.00;29.00;;;;;25.45;49.65;100087.94;2105052;27;47605;-62
2022/08/16 03:02:43;;;;;;;;;35.50;32.00;;;;;25.43;50.06;100092.66;2102067;28;47507;-62
2022/08/16 03:03:43;;;;;;;;;31.20;29.20;;;;;25.42;50.26;100093.69;2100885;27;47940;-60
2022/08/16 03:04:44;;;;;;;;;35.50;31.50;;;;;25.42;49.94;100083.66;2105296;28;47652;-62
2022/08/16 03:05:46;;;;;;;;;31.00;29.75;;;;;25.42;50.16;100071.94;2101731;27;47886;-62
2022/08/16 03:06:46;;;;;;;;;34.80;32.20;;;;;25.41;49.99;100072.91;2103404;27;47788;-62
2022/08/16 03:07:47;;;;;;;;;33.50;30.50;;;;;25.43;50.34;100065.50;2101843;27;47659;-61
2022/08/16 03:08:48;;;;;;;;;31.75;30.50;;;;;25.43;50.22;100060.94;2101160;27;47767;-61
2022/08/16 03:09:49;;;;;;;;;35.20;31.60;;;;;25.44;50.22;100059.06;2097506;28;47901;-61
2022/08/16 03:10:49;;;;;;;;;35.25;32.00;;;;;25.45;50.62;100058.91;2102560;28;47688;-61
2022/08/16 03:11:50;;;;;;;;;33.50;31.25;;;;;25.46;50.48;100051.63;2105191;27;48152;-60
2022/08/16 03:12:50;;;;;;;;;35.00;31.25;;;;;25.45;50.44;100058.91;2105050;27;47412;-61
2022/08/16 03:13:53;;;;;;;;;26.00;25.00;;;;;25.45;50.72;100069.78;2104542;28;47571;-61
2022/08/16 03:14:53;;;;;;;;;39.20;32.40;;;;;25.45;50.54;100061.63;2104994;28;47980;-62
2022/08/16 03:15:54;;;;;;;;;37.50;33.50;;;;;25.41;50.80;100073.81;2103910;27;47728;-62
2022/08/16 03:16:54;;;;;;;;;37.25;33.25;;;;;25.37;50.64;100069.63;2113146;27;47709;-61
2022/08/16 03:17:55;;;;;;;;;34.75;32.25;;;;;25.34;51.17;100074.50;2113395;27;45558;-62
2022/08/16 03:18:55;;;;;;;;;36.50;32.00;;;;;25.29;50.80;100065.94;2102926;27;46787;-59
2022/08/16 03:19:56;;;;;;;;;37.50;33.00;;;;;25.27;51.10;100068.78;2104537;28;47739;-61
2022/08/16 03:20:58;;;;;;;;;34.25;30.25;;;;;25.24;50.77;100063.63;2104581;28;47535;-62
2022/08/16 03:21:58;;;;;;;;;37.00;31.80;;;;;25.21;51.52;100072.94;2103067;27;47698;-61
2022/08/16 03:22:59;;;;;;;;;36.25;32.50;;;;;25.18;50.95;100072.38;2103860;27;47275;-62
2022/08/16 03:24:00;;;;;;;;;34.00;31.00;;;;;25.14;51.31;100073.63;2102354;27;47065;-61
2022/08/16 03:25:06;;;;;;;;;36.25;32.00;;;;;25.11;51.20;100087.50;2104389;28;48083;-61
2022/08/16 03:26:06;;;;;;;;;32.60;30.60;;;;;25.07;51.20;100084.22;2105179;27;47328;-61
2022/08/16 03:27:09;;;;;;;;;36.50;32.50;;;;;25.05;51.39;100086.22;2105060;27;47864;-61
2022/08/16 03:28:09;;;;;;;;;33.20;29.80;;;;;25.06;51.28;100081.66;2103624;27;47615;-62
2022/08/16 03:29:10;;;;;;;;;31.25;29.75;;;;;25.05;51.32;100086.22;2105049;27;47568;-61
2022/08/16 03:30:16;;;;;;;;;36.80;32.80;;;;;25.08;51.93;100088.66;2104217;27;47856;-61
2022/08/16 03:31:16;;;;;;;;;35.20;31.20;;;;;25.07;51.40;100096.94;2103111;27;48112;-62
2022/08/16 03:32:17;;;;;;;;;26.75;26.25;;;;;25.06;51.37;100095.22;2097471;27;47315;-61
2022/08/16 03:33:17;;;;;;;;;35.75;32.50;;;;;25.04;51.57;100097.22;2101313;28;47499;-61
2022/08/16 03:34:19;;;;;;;;;34.75;32.00;;;;;25.05;51.59;100099.81;2101678;27;47964;-61
2022/08/16 03:35:23;;;;;;;;;38.20;33.20;;;;;25.05;51.18;100099.81;2104150;28;47660;-61
2022/08/16 03:36:24;;;;;;;;;36.20;32.40;;;;;25.06;51.07;100092.50;2104804;27;47536;-59
2022/08/16 03:37:24;;;;;;;;;32.25;30.75;;;;;25.07;51.37;100094.22;2104094;27;47876;-61
2022/08/16 03:38:26;;;;;;;;;41.00;34.25;;;;;25.08;51.62;100094.06;2103119;28;48167;-61
2022/08/16 03:39:27;;;;;;;;;39.60;34.20;;;;;25.09;51.12;100097.66;2101731;28;48132;-60
2022/08/16 03:40:29;;;;;;;;;37.80;32.80;;;;;25.09;51.65;100100.38;2101964;27;47720;-60
2022/08/16 03:41:29;;;;;;;;;34.20;30.80;;;;;25.08;51.62;100095.94;2104819;28;47480;-60
2022/08/16 03:42:30;;;;;;;;;29.75;27.75;;;;;25.06;51.76;100104.22;2105165;27;47136;-60
2022/08/16 03:43:30;;;;;;;;;33.75;30.75;;;;;25.07;51.71;100099.66;2104122;28;47343;-60
2022/08/16 03:44:31;;;;;;;;;41.00;35.00;;;;;25.08;51.54;100101.38;2104083;28;47405;-60
2022/08/16 03:45:32;;;;;;;;;33.50;30.00;;;;;25.09;51.63;100101.22;2104477;28;47367;-61
2022/08/16 03:46:34;;;;;;;;;36.20;32.40;;;;;25.09;51.71;100098.50;2103959;28;47739;-61
2022/08/16 03:47:34;;;;;;;;;35.80;32.80;;;;;25.10;51.89;100108.38;2104579;27;47498;-62
2022/08/16 03:48:38;;;;;;;;;38.25;32.50;;;;;25.09;51.92;100103.94;2103342;27;47514;-62
2022/08/16 03:49:38;;;;;;;;;34.60;31.40;;;;;25.08;51.89;100101.38;2103483;27;47619;-59
2022/08/16 03:50:38;;;;;;;;;40.00;34.50;;;;;25.07;51.73;100103.22;2104655;28;47731;-61
2022/08/16 03:51:41;;;;;;;;;36.50;32.00;;;;;25.06;51.25;100096.09;2103101;27;47606;-61
2022/08/16 03:52:42;;;;;;;;;35.80;32.80;;;;;25.07;51.29;100097.78;2104553;27;47928;-63
2022/08/16 03:53:42;;;;;;;;;36.75;33.00;;;;;25.09;51.32;100094.94;2109705;27;48151;-61
2022/08/16 03:54:43;;;;;;;;;32.75;30.25;;;;;25.10;51.56;100094.78;2095871;28;47188;-61
2022/08/16 03:55:43;;;;;;;;;39.25;33.50;;;;;25.11;51.63;100103.78;2101646;27;47608;-58
2022/08/16 03:56:43;;;;;;;;;41.75;35.25;;;;;25.12;51.73;100100.94;2098299;27;47618;-61
2022/08/16 03:57:44;;;;;;;;;42.50;33.25;;;;;25.10;51.28;100097.50;2102580;28;47642;-60
2022/08/16 03:58:44;;;;;;;;;38.50;33.00;;;;;25.07;51.66;100097.78;2104382;27;47593;-61
2022/08/16 03:59:45;;;;;;;;;35.00;31.00;;;;;25.02;52.05;100107.34;2104056;27;47292;-60
2022/08/16 04:00:45;;;;;;;;;38.25;33.75;;;;;25.01;51.84;100102.91;2104776;27;47949;-62
2022/08/16 04:01:46;;;;;;;;;34.75;31.75;;;;;24.99;51.85;100099.47;2103820;27;47619;-61
2022/08/16 04:02:46;;;;;;;;;38.50;31.25;;;;;24.97;52.00;100099.59;2104778;27;46395;-63
2022/08/16 04:03:47;;;;;;;;;35.50;31.25;;;;;24.96;52.26;100100.59;2103309;27;47912;-62
2022/08/16 04:04:48;;;;;;;;;33.25;31.00;;;;;24.96;52.27;100103.31;2095362;28;47682;-63
2022/08/16 04:05:50;;;;;;;;;37.00;32.20;;;;;24.97;52.14;100102.31;2095795;28;47245;-63
2022/08/16 04:06:50;;;;;;;;;39.40;32.40;;;;;24.97;52.04;100105.03;2104189;28;48008;-63
2022/08/16 04:07:50;;;;;;;;;36.00;33.25;;;;;24.96;52.59;100111.47;2104730;27;47821;-62
2022/08/16 04:08:51;;;;;;;;;33.25;31.00;;;;;24.89;52.20;100105.72;2104672;27;47629;-61
2022/08/16 04:09:51;;;;;;;;;39.00;34.25;;;;;24.87;52.04;100112.28;2104725;27;47879;-62
2022/08/16 04:10:54;;;;;;;;;38.50;33.00;;;;;24.83;52.36;100114.44;2104745;27;48277;-62
2022/08/16 04:11:54;;;;;;;;;38.40;33.40;;;;;24.79;52.24;100106.72;2104539;27;48022;-62
2022/08/16 04:12:54;;;;;;;;;34.00;31.25;;;;;24.79;51.98;100109.44;2104354;28;47374;-62
2022/08/16 04:13:55;;;;;;;;;39.25;34.50;;;;;24.81;52.47;100119.16;2104428;28;47431;-62
2022/08/16 04:14:55;;;;;;;;;33.50;31.00;;;;;24.78;52.70;100116.72;2104642;27;47462;-61
2022/08/16 04:15:58;;;;;;;;;32.50;30.25;;;;;24.79;52.23;100117.56;2101449;27;47168;-62
2022/08/16 04:16:59;;;;;;;;;37.20;31.40;;;;;24.79;52.35;100120.28;2109765;27;47647;-62
2022/08/16 04:18:00;;;;;;;;;39.40;34.60;;;;;24.80;52.59;100125.56;2103172;28;47890;-62
2022/08/16 04:19:02;;;;;;;;;32.00;30.00;;;;;24.80;52.51;100117.44;2094841;28;47490;-62
2022/08/16 04:20:07;;;;;;;;;38.80;34.00;;;;;24.81;52.50;100121.00;2094427;28;47256;-61
2022/08/16 04:21:08;;;;;;;;;33.20;31.00;;;;;24.81;53.15;100121.00;2096635;28;48112;-61
2022/08/16 04:22:08;;;;;;;;;38.25;33.25;;;;;24.78;52.64;100119.44;2104523;28;47742;-61
2022/08/16 04:23:08;;;;;;;;;37.25;33.75;;;;;24.79;52.33;100123.84;2111749;27;48098;-62
2022/08/16 04:24:09;;;;;;;;;33.00;31.00;;;;;24.79;52.33;100125.72;2112028;27;47381;-61
2022/08/16 04:25:11;;;;;;;;;35.25;32.25;;;;;24.79;52.58;100123.84;2104622;27;48038;-61
2022/08/16 04:26:11;;;;;;;;;38.20;32.80;;;;;24.81;52.45;100118.28;2104591;27;47196;-62
2022/08/16 04:27:11;;;;;;;;;31.75;30.50;;;;;24.80;52.62;100113.88;2112610;27;46536;-62
2022/08/16 04:28:12;;;;;;;;;35.00;32.25;;;;;24.81;52.57;100113.72;2103199;27;47300;-62
2022/08/16 04:29:14;;;;;;;;;30.00;28.75;;;;;24.84;52.77;100121.56;2103998;28;47996;-62
2022/08/16 04:30:17;;;;;;;;;35.80;32.40;;;;;24.85;52.47;100111.56;2104231;27;48176;-62
2022/08/16 04:31:18;;;;;;;;;37.00;32.60;;;;;24.85;52.51;100115.16;2104521;27;47567;-63
2022/08/16 04:32:18;;;;;;;;;34.00;31.75;;;;;24.87;52.28;100117.72;2104841;27;47773;-63
2022/08/16 04:33:19;;;;;;;;;38.00;33.25;;;;;24.87;52.74;100117.72;2104740;27;47762;-62
2022/08/16 04:34:20;;;;;;;;;34.75;31.00;;;;;24.86;52.82;100121.44;2104730;27;47895;-63
2022/08/16 04:35:22;;;;;;;;;34.40;31.40;;;;;24.83;52.65;100119.00;2103987;27;47686;-63
2022/08/16 04:36:22;;;;;;;;;35.60;31.80;;;;;24.81;52.59;100112.88;2104381;27;47606;-62
2022/08/16 04:37:22;;;;;;;;;37.00;32.75;;;;;24.79;52.61;100113.00;2111872;27;47266;-63
2022/08/16 04:38:24;;;;;;;;;37.25;33.50;;;;;24.80;52.77;100120.16;2111837;27;47437;-63
2022/08/16 04:39:25;;;;;;;;;32.00;30.00;;;;;24.81;52.61;100121.84;2104601;27;47380;-61
2022/08/16 04:40:26;;;;;;;;;34.80;31.80;;;;;24.81;52.81;100115.56;2107655;27;47832;-62
2022/08/16 04:41:29;;;;;;;;;34.00;31.25;;;;;24.80;52.68;100117.44;2107763;27;47263;-62